Time;durP1;ratioP1;P1;durP2;ratioP2;P2;SDS_P1;SDS_P2;PMS_P1;PMS_P2;Temp;Humidity;BMP_temperature;BMP_pressure;BME280_temperature;BME280_humidity;BME280_pressure;Samples;Min_cycle;Max_cycle;Signal;HPM_P1;HPM_P2
2023/07/22 00:02:53;;;;;;;5.50;4.90;;;;;;;16.20;100.00;98237.10;135568;1274;22651;-83
2023/07/22 00:05:56;;;;;;;8.20;5.40;;;;;;;16.18;100.00;98243.27;135547;1274;22535;-81
2023/07/22 00:08:58;;;;;;;5.50;4.80;;;;;;;16.22;100.00;98244.07;135713;1274;22552;-82
2023/07/22 00:12:01;;;;;;;7.40;5.10;;;;;;;16.21;100.00;98243.73;135659;1274;25488;-81
2023/07/22 00:15:03;;;;;;;9.00;5.90;;;;;;;16.21;100.00;98247.60;135725;1274;22591;-81
2023/07/22 00:18:06;;;;;;;8.50;5.70;;;;;;;16.23;100.00;98242.65;135746;1274;22521;-82
2023/07/22 00:21:09;;;;;;;7.00;5.40;;;;;;;16.21;100.00;98247.95;135809;1271;22534;-82
2023/07/22 00:24:12;;;;;;;7.70;6.10;;;;;;;16.20;100.00;98243.41;135751;1275;22554;-81
2023/07/22 00:27:14;;;;;;;6.20;5.60;;;;;;;16.17;100.00;98244.70;135690;1274;22575;-81
2023/07/22 00:30:17;;;;;;;6.00;5.40;;;;;;;16.19;100.00;98253.80;135714;1275;22548;-82
2023/07/22 00:33:19;;;;;;;8.30;6.00;;;;;;;16.21;100.00;98253.38;135589;1274;22535;-83
2023/07/22 00:36:22;;;;;;;6.60;5.00;;;;;;;16.22;100.00;98252.14;135632;1274;22520;-80
2023/07/22 00:39:24;;;;;;;7.30;5.20;;;;;;;16.26;100.00;98258.39;135626;1274;22540;-82
2023/07/22 00:42:27;;;;;;;6.80;4.60;;;;;;;16.24;100.00;98264.05;135621;1274;22540;-82
2023/07/22 00:45:29;;;;;;;8.30;6.70;;;;;;;16.20;100.00;98261.14;135596;1274;22546;-82
2023/07/22 00:48:32;;;;;;;14.00;12.70;;;;;;;16.19;100.00;98266.06;135654;1274;24865;-82
2023/07/22 00:51:34;;;;;;;7.00;5.40;;;;;;;16.16;100.00;98274.56;135648;1274;22610;-82
2023/07/22 00:54:36;;;;;;;7.10;4.80;;;;;;;16.10;100.00;98276.26;135658;1274;22540;-83
2023/07/22 00:57:39;;;;;;;13.10;11.90;;;;;;;16.04;100.00;98283.56;135645;1274;22533;-83
2023/07/22 01:00:41;;;;;;;6.70;5.70;;;;;;;16.02;100.00;98277.81;135687;1274;22532;-83
2023/07/22 01:03:46;;;;;;;5.10;4.60;;;;;;;16.00;100.00;98270.31;135666;1274;22547;-83
2023/07/22 01:06:48;;;;;;;5.10;4.40;;;;;;;15.99;100.00;98269.81;135691;1251;22468;-83
2023/07/22 01:09:50;;;;;;;6.10;4.60;;;;;;;15.93;100.00;98255.52;135684;1274;22533;-83
2023/07/22 01:12:53;;;;;;;5.90;4.60;;;;;;;15.88;100.00;98250.54;135674;1274;26029;-84
2023/07/22 01:15:55;;;;;;;5.40;4.30;;;;;;;15.80;100.00;98251.56;135709;1274;22533;-84
2023/07/22 01:18:58;;;;;;;4.70;4.30;;;;;;;15.69;100.00;98254.39;135670;1271;24197;-82
2023/07/22 01:22:00;;;;;;;5.10;4.60;;;;;;;15.61;100.00;98258.56;135680;1274;23770;-82
2023/07/22 01:25:03;;;;;;;6.60;4.80;;;;;;;15.51;100.00;98263.94;135684;1275;22550;-82
2023/07/22 01:28:05;;;;;;;6.40;4.50;;;;;;;15.45;100.00;98270.17;135670;1274;25329;-83
2023/07/22 01:31:08;;;;;;;4.90;4.50;;;;;;;15.43;100.00;98273.20;135635;1274;22534;-82
2023/07/22 01:34:12;;;;;;;5.40;4.50;;;;;;;15.42;100.00;98277.42;135717;1274;25271;-83
2023/07/22 01:37:14;;;;;;;4.70;4.30;;;;;;;15.38;100.00;98277.13;135758;1274;25420;-83
2023/07/22 01:40:17;;;;;;;11.60;4.60;;;;;;;15.29;100.00;98282.70;135682;1274;22538;-85
2023/07/22 01:43:21;;;;;;;7.20;4.20;;;;;;;15.22;100.00;98286.14;135656;1274;25235;-81
2023/07/22 01:46:23;;;;;;;7.80;4.30;;;;;;;15.14;100.00;98279.45;135582;1274;22709;-84
2023/07/22 01:49:26;;;;;;;5.30;4.80;;;;;;;15.08;100.00;98281.64;135683;1274;22541;-82
2023/07/22 01:52:28;;;;;;;5.30;4.80;;;;;;;15.02;100.00;98284.54;135659;1274;22638;-81
2023/07/22 01:55:32;;;;;;;6.70;4.40;;;;;;;14.91;100.00;98289.94;135750;1274;22540;-82
2023/07/22 01:58:34;;;;;;;5.30;4.60;;;;;;;14.89;100.00;98286.46;135657;1274;22542;-82
2023/07/22 02:01:37;;;;;;;5.70;5.10;;;;;;;14.87;100.00;98286.86;135693;1274;23247;-82
2023/07/22 02:04:39;;;;;;;5.50;5.00;;;;;;;14.83;100.00;98280.27;135639;1274;22534;-83
2023/07/22 02:07:42;;;;;;;5.80;5.20;;;;;;;14.80;100.00;98281.70;135657;1274;22580;-83
2023/07/22 02:10:45;;;;;;;5.10;4.70;;;;;;;14.78;100.00;98281.55;135703;1274;24609;-83
2023/07/22 02:13:47;;;;;;;5.70;5.20;;;;;;;14.73;100.00;98290.18;135668;1274;22545;-83
2023/07/22 02:16:49;;;;;;;6.90;6.00;;;;;;;14.71;100.00;98282.33;135669;1274;22851;-83
2023/07/22 02:19:52;;;;;;;6.50;5.90;;;;;;;14.66;100.00;98286.58;135670;1274;22549;-81
2023/07/22 02:22:54;;;;;;;9.40;5.60;;;;;;;14.63;100.00;98287.49;135729;1274;23009;-82
2023/07/22 02:25:57;;;;;;;7.70;6.00;;;;;;;14.59;100.00;98288.60;135664;1274;23412;-83
2023/07/22 02:28:59;;;;;;;5.90;5.30;;;;;;;14.58;100.00;98290.71;135572;1251;22520;-82
2023/07/22 02:32:03;;;;;;;6.30;5.60;;;;;;;14.52;100.00;98287.11;135675;1274;25281;-85
2023/07/22 02:35:06;;;;;;;7.10;5.60;;;;;;;14.49;100.00;98293.47;135726;1274;22544;-82
2023/07/22 02:38:08;;;;;;;7.90;5.20;;;;;;;14.49;100.00;98299.06;135872;1274;23859;-80
2023/07/22 02:41:11;;;;;;;7.10;5.80;;;;;;;14.48;100.00;98303.10;135432;1274;22579;-80
2023/07/22 02:44:13;;;;;;;7.40;4.60;;;;;;;15.11;100.00;98303.13;135802;1274;24966;-81
2023/07/22 02:47:16;;;;;;;15.30;4.90;;;;;;;16.45;100.00;98303.66;135848;1274;22562;-81
2023/07/22 02:50:19;;;;;;;49.50;9.50;;;;;;;17.55;100.00;98306.52;135838;1274;22603;-82
2023/07/22 02:53:21;;;;;;;10.70;7.30;;;;;;;18.21;100.00;98311.02;135731;1268;22558;-83
2023/07/22 02:56:24;;;;;;;10.50;6.80;;;;;;;18.57;100.00;98317.61;135732;1275;22537;-85
2023/07/22 02:59:26;;;;;;;12.90;6.80;;;;;;;18.64;100.00;98332.75;135858;1274;22831;-84
2023/07/22 03:02:29;;;;;;;8.30;6.90;;;;;;;18.34;100.00;98337.09;135879;1274;22553;-81
2023/07/22 03:05:31;;;;;;;13.10;6.20;;;;;;;18.47;100.00;98334.96;135903;1275;23311;-81
2023/07/22 03:08:34;;;;;;;6.60;6.00;;;;;;;18.79;100.00;98344.85;136202;1275;22552;-81
2023/07/22 03:11:37;;;;;;;11.30;7.40;;;;;;;18.95;100.00;98340.83;136320;1274;22580;-81
2023/07/22 03:14:40;;;;;;;471.40;47.70;;;;;;;19.10;100.00;98349.06;136754;1275;22541;-80
2023/07/22 03:17:43;;;;;;;293.90;26.00;;;;;;;19.30;100.00;98348.45;137233;1274;22468;-80
2023/07/22 03:20:45;;;;;;;109.70;14.50;;;;;;;19.41;100.00;98344.38;136915;1275;22558;-83
2023/07/22 03:23:48;;;;;;;39.30;8.90;;;;;;;19.66;100.00;98347.16;137496;1274;22194;-80
2023/07/22 03:26:51;;;;;;;64.60;10.30;;;;;;;19.93;100.00;98347.50;137404;1275;22991;-84
2023/07/22 03:29:53;;;;;;;19.80;7.30;;;;;;;20.20;100.00;98354.54;136764;1275;22554;-83
2023/07/22 03:32:56;;;;;;;31.40;7.30;;;;;;;20.42;100.00;98356.27;136359;1269;22574;-82
2023/07/22 03:35:58;;;;;;;18.60;6.30;;;;;;;20.56;100.00;98358.95;136412;1267;25326;-82
2023/07/22 03:39:00;;;;;;;61.60;10.00;;;;;;;20.63;100.00;98360.64;136407;1275;22573;-82
2023/07/22 03:42:03;;;;;;;34.60;8.70;;;;;;;20.62;100.00;98363.50;136370;1274;22562;-82
2023/07/22 03:45:06;;;;;;;24.00;7.10;;;;;;;20.63;100.00;98361.35;136510;1275;22546;-83
2023/07/22 03:48:10;;;;;;;24.40;6.70;;;;;;;20.66;100.00;98364.96;136468;1275;22552;-81
2023/07/22 03:51:12;;;;;;;16.00;6.40;;;;;;;20.70;100.00;98372.60;136227;1274;22574;-81
2023/07/22 03:54:15;;;;;;;25.60;7.30;;;;;;;20.69;100.00;98379.00;136100;1274;22871;-82
2023/07/22 03:57:17;;;;;;;17.90;6.80;;;;;;;20.57;100.00;98386.86;136684;1274;23272;-82
2023/07/22 04:00:20;;;;;;;21.40;8.30;;;;;;;20.44;100.00;98386.08;136561;1275;22561;-80
2023/07/22 04:03:22;;;;;;;36.00;10.10;;;;;;;20.51;100.00;98385.65;136140;1274;22537;-82
2023/07/22 04:06:24;;;;;;;19.60;8.00;;;;;;;20.60;100.00;98382.66;136223;1274;22527;-82
2023/07/22 04:09:27;;;;;;;9.60;6.20;;;;;;;20.64;100.00;98385.52;136151;1274;22553;-86
2023/07/22 04:12:30;;;;;;;13.20;6.40;;;;;;;20.61;100.00;98392.20;136568;1274;22534;-83
2023/07/22 04:15:32;;;;;;;32.10;7.60;;;;;;;20.47;100.00;98400.48;136628;1274;22532;-80
2023/07/22 04:18:35;;;;;;;15.60;7.60;;;;;;;20.44;100.00;98398.80;136662;1274;24270;-82
2023/07/22 04:21:38;;;;;;;22.20;7.30;;;;;;;20.30;100.00;98399.58;136704;1274;22486;-82
2023/07/22 04:24:40;;;;;;;19.20;7.40;;;;;;;20.18;100.00;98405.85;136621;1274;22609;-82
2023/07/22 04:27:43;;;;;;;23.10;8.60;;;;;;;19.67;100.00;98402.71;136847;1274;22884;-83
2023/07/22 04:30:46;;;;;;;27.40;9.60;;;;;;;19.39;100.00;98399.85;136788;1275;25633;-79
2023/07/22 04:33:49;;;;;;;21.20;9.40;;;;;;;19.34;100.00;98409.52;135939;1275;22530;-81
2023/07/22 04:36:51;;;;;;;16.50;10.00;;;;;;;19.09;100.00;98411.86;136688;1275;22596;-82
2023/07/22 04:40:16;;;;;;;12.30;10.10;;;;;;;18.99;100.00;98411.08;136469;1275;25427;-82
2023/07/22 04:43:19;;;;;;;12.50;9.80;;;;;;;19.17;100.00;98413.06;136442;1275;22901;-80
2023/07/22 04:46:23;;;;;;;17.50;10.30;;;;;;;19.35;100.00;98405.45;136242;1274;22561;-82
2023/07/22 04:49:26;;;;;;;14.20;10.40;;;;;;;19.66;100.00;98410.52;136175;1275;22680;-81
2023/07/22 04:52:29;;;;;;;35.70;10.90;;;;;;;19.73;100.00;98420.88;136120;1274;22546;-82
2023/07/22 04:55:34;;;;;;;18.20;12.50;;;;;;;19.68;100.00;98419.65;136091;1275;23161;-82
2023/07/22 04:58:43;;;;;;;29.00;14.10;;;;;;;19.69;100.00;98418.17;136032;1274;22493;-78
2023/07/22 05:01:46;;;;;;;24.40;13.40;;;;;;;19.67;100.00;98410.66;135617;1274;22531;-79
2023/07/22 05:04:48;;;;;;;30.50;15.10;;;;;;;19.60;100.00;98408.41;135663;1274;24138;-80
2023/07/22 05:07:52;;;;;;;20.80;14.90;;;;;;;19.59;100.00;98407.02;135721;1251;24857;-80
2023/07/22 05:10:54;;;;;;;19.50;15.10;;;;;;;19.62;100.00;98408.17;135758;1274;22543;-79
2023/07/22 05:13:57;;;;;;;22.30;15.80;;;;;;;19.55;100.00;98418.63;135622;1274;22583;-79
2023/07/22 05:16:59;;;;;;;26.80;15.60;;;;;;;19.42;100.00;98429.94;135605;1274;22544;-78
2023/07/22 05:20:03;;;;;;;18.10;14.80;;;;;;;19.34;100.00;98434.94;135554;1275;22565;-84
2023/07/22 05:23:06;;;;;;;16.70;14.60;;;;;;;19.19;100.00;98440.17;135909;1275;22612;-83
2023/07/22 05:26:08;;;;;;;24.80;14.70;;;;;;;18.91;100.00;98441.80;135998;1271;22533;-83
2023/07/22 05:29:11;;;;;;;20.00;14.30;;;;;;;18.86;100.00;98444.96;136379;1274;22571;-83
2023/07/22 05:32:14;;;;;;;21.20;13.70;;;;;;;19.12;100.00;98445.83;136232;1274;22519;-82
2023/07/22 05:35:16;;;;;;;23.90;12.60;;;;;;;19.21;100.00;98450.35;136166;1274;25229;-83
2023/07/22 05:38:19;;;;;;;17.30;11.70;;;;;;;19.13;100.00;98451.08;136094;1269;22581;-82
2023/07/22 05:41:21;;;;;;;16.60;11.60;;;;;;;19.09;100.00;98459.85;135989;1274;22479;-83
2023/07/22 05:44:24;;;;;;;12.70;11.40;;;;;;;19.24;100.00;98458.70;135698;1274;22545;-84
2023/07/22 05:47:26;;;;;;;14.10;10.80;;;;;;;19.23;100.00;98455.58;135686;1275;22520;-83
2023/07/22 05:50:29;;;;;;;21.60;11.40;;;;;;;19.20;100.00;98452.30;135755;1274;22654;-83
2023/07/22 05:53:32;;;;;;;14.50;10.70;;;;;;;19.37;100.00;98453.73;135641;1274;22569;-83
2023/07/22 05:56:34;;;;;;;16.60;11.10;;;;;;;19.64;100.00;98446.58;135684;1274;22665;-82
2023/07/22 05:59:37;;;;;;;12.00;10.00;;;;;;;19.73;100.00;98451.41;135727;1274;22535;-83
2023/07/22 06:02:39;;;;;;;11.60;8.50;;;;;;;19.88;100.00;98454.85;135702;1274;23149;-82
2023/07/22 06:05:42;;;;;;;10.60;7.80;;;;;;;19.37;100.00;98461.33;135614;1274;24196;-82
2023/07/22 06:08:44;;;;;;;8.60;7.60;;;;;;;19.35;100.00;98461.02;135891;1274;22552;-83
2023/07/22 06:11:47;;;;;;;8.90;6.90;;;;;;;19.40;100.00;98465.12;135678;1274;22538;-84
2023/07/22 06:14:49;;;;;;;15.40;7.50;;;;;;;19.30;100.00;98464.89;135874;1274;22644;-83
2023/07/22 06:17:52;;;;;;;6.50;5.90;;;;;;;19.16;100.00;98464.24;135889;1274;22552;-83
2023/07/22 06:20:54;;;;;;;7.80;6.30;;;;;;;19.25;100.00;98458.68;135760;1274;22640;-84
2023/07/22 06:23:57;;;;;;;8.90;6.50;;;;;;;19.26;100.00;98466.40;135919;1274;22544;-83
2023/07/22 06:26:59;;;;;;;6.90;6.40;;;;;;;19.28;100.00;98464.94;135684;1274;25255;-84
2023/07/22 06:30:02;;;;;;;7.50;6.20;;;;;;;19.44;100.00;98474.88;135797;1274;22515;-83
2023/07/22 06:33:04;;;;;;;7.70;6.10;;;;;;;19.35;100.00;98475.66;135846;1274;22533;-83
2023/07/22 06:36:08;;;;;;;6.90;6.20;;;;;;;19.41;100.00;98480.08;135804;1274;22527;-82
2023/07/22 06:39:10;;;;;;;8.60;6.30;;;;;;;19.55;100.00;98481.46;135868;1275;22559;-82
2023/07/22 06:42:13;;;;;;;7.00;6.30;;;;;;;19.65;100.00;98480.28;135882;1274;25803;-82
2023/07/22 06:45:15;;;;;;;6.60;6.00;;;;;;;19.97;100.00;98477.89;135757;1275;24246;-86
2023/07/22 06:48:17;;;;;;;6.90;6.20;;;;;;;20.18;100.00;98483.39;135839;1274;24226;-83
2023/07/22 06:51:20;;;;;;;9.20;5.70;;;;;;;20.71;100.00;98484.31;135845;1274;24905;-83
2023/07/22 06:54:23;;;;;;;8.30;5.30;;;;;;;21.14;100.00;98487.77;135793;1275;24871;-83
2023/07/22 06:57:26;;;;;;;5.50;5.00;;;;;;;21.10;100.00;98490.18;135878;1275;22671;-85
2023/07/22 07:00:28;;;;;;;5.40;4.90;;;;;;;20.98;100.00;98487.98;135817;1274;22530;-85
2023/07/22 07:03:33;;;;;;;5.50;5.00;;;;;;;21.04;100.00;98490.06;135692;1275;23636;-84
2023/07/22 07:06:35;;;;;;;8.10;5.10;;;;;;;20.90;100.00;98493.55;135718;1274;22527;-85
2023/07/22 07:09:38;;;;;;;7.60;4.60;;;;;;;20.95;100.00;98496.91;135832;1274;22541;-85
2023/07/22 07:12:41;;;;;;;6.50;5.00;;;;;;;21.19;100.00;98500.30;135881;1274;22534;-84
2023/07/22 07:15:43;;;;;;;4.50;4.10;;;;;;;21.48;100.00;98502.45;135906;1275;22534;-84
2023/07/22 07:18:46;;;;;;;6.10;4.40;;;;;;;21.40;100.00;98503.46;135886;1275;25421;-84
2023/07/22 07:21:49;;;;;;;4.60;4.20;;;;;;;21.47;100.00;98507.59;135924;1274;22948;-84
2023/07/22 07:24:52;;;;;;;4.50;3.90;;;;;;;21.63;100.00;98513.02;136839;1274;22554;-83
2023/07/22 07:27:56;;;;;;;4.80;3.90;;;;;;;21.74;100.00;98517.94;137188;1275;22601;-83
2023/07/22 07:30:59;;;;;;;4.10;3.80;;;;;;;21.78;100.00;98518.34;136792;1274;22549;-82
2023/07/22 07:34:02;;;;;;;4.20;3.50;;;;;;;22.06;100.00;98519.73;137057;1274;22566;-83
2023/07/22 07:37:05;;;;;;;5.40;3.50;;;;;;;22.45;100.00;98523.45;137200;1275;22547;-84
2023/07/22 07:40:10;;;;;;;4.90;4.30;;;;;;;22.59;100.00;98524.70;136946;1275;22549;-83
2023/07/22 07:43:12;;;;;;;4.40;3.70;;;;;;;22.33;100.00;98534.95;136559;1275;24193;-80
2023/07/22 07:46:17;;;;;;;6.60;3.50;;;;;;;22.02;100.00;98543.27;136042;1275;22531;-80
2023/07/22 07:49:21;;;;;;;4.30;3.50;;;;;;;21.75;100.00;98545.17;135774;1275;22583;-81
2023/07/22 07:52:23;;;;;;;5.80;3.70;;;;;;;21.47;100.00;98549.02;135316;1274;23152;-82
2023/07/22 07:55:26;;;;;;;6.00;3.40;;;;;;;21.39;100.00;98548.79;135766;1274;22962;-80
2023/07/22 07:58:28;;;;;;;6.60;3.40;;;;;;;21.46;100.00;98549.77;135392;1262;22569;-81
2023/07/22 08:01:31;;;;;;;4.10;3.00;;;;;;;21.70;100.00;98549.97;135759;1275;22531;-84
2023/07/22 08:04:33;;;;;;;5.50;3.10;;;;;;;21.67;100.00;98543.52;135781;1274;22577;-84
2023/07/22 08:07:36;;;;;;;4.00;3.00;;;;;;;21.57;100.00;98545.46;135770;1274;23578;-84
2023/07/22 08:10:39;;;;;;;3.00;2.80;;;;;;;21.41;100.00;98552.63;135499;1275;25482;-83
2023/07/22 08:13:41;;;;;;;3.80;3.30;;;;;;;21.38;100.00;98554.66;135742;1274;24200;-82
2023/07/22 08:16:44;;;;;;;4.70;3.40;;;;;;;21.86;100.00;98557.17;135618;1275;23285;-82
2023/07/22 08:19:46;;;;;;;5.10;3.40;;;;;;;22.02;100.00;98560.81;135702;1274;22527;-82
2023/07/22 08:22:49;;;;;;;7.60;3.90;;;;;;;22.12;100.00;98568.41;135607;1274;22582;-83
2023/07/22 08:25:52;;;;;;;3.40;3.10;;;;;;;22.02;100.00;98570.20;135669;1251;22641;-83
2023/07/22 08:28:54;;;;;;;3.50;3.20;;;;;;;21.74;100.00;98576.76;135854;1274;24200;-83
2023/07/22 08:31:57;;;;;;;5.60;3.50;;;;;;;21.69;100.00;98576.20;135705;1275;25398;-83
2023/07/22 08:34:59;;;;;;;3.10;2.80;;;;;;;22.13;100.00;98583.96;135822;1274;25050;-84
2023/07/22 08:38:02;;;;;;;3.70;3.40;;;;;;;22.22;100.00;98588.02;136105;1275;22534;-82
2023/07/22 08:41:04;;;;;;;6.30;3.60;;;;;;;22.42;92.58;98586.70;136115;1274;22519;-83
2023/07/22 08:44:07;;;;;;;5.50;2.70;;;;;;;22.53;63.34;98585.04;136062;1275;22587;-80
2023/07/22 08:47:09;;;;;;;3.40;3.00;;;;;;;22.63;62.47;98589.42;136090;1275;22771;-81
2023/07/22 08:50:12;;;;;;;7.30;2.70;;;;;;;22.52;61.20;98592.70;135974;1274;22537;-84
2023/07/22 08:53:14;;;;;;;4.30;2.90;;;;;;;22.49;61.21;98599.90;135557;1274;24298;-82
2023/07/22 08:56:17;;;;;;;7.70;2.80;;;;;;;22.47;61.16;98603.52;135717;1275;22536;-82
2023/07/22 08:59:19;;;;;;;4.40;2.90;;;;;;;22.55;61.39;98606.60;135494;1275;25432;-82
2023/07/22 09:02:22;;;;;;;4.20;3.20;;;;;;;23.01;61.38;98606.30;135397;1275;26255;-81
2023/07/22 09:05:24;;;;;;;3.80;2.70;;;;;;;23.77;60.08;98604.64;136173;1275;22614;-82
2023/07/22 09:08:27;;;;;;;3.10;2.50;;;;;;;24.26;58.09;98608.09;136167;1275;22565;-83
2023/07/22 09:11:29;;;;;;;6.90;2.50;;;;;;;24.10;56.86;98609.17;135979;1274;22597;-82
2023/07/22 09:14:34;;;;;;;9.00;3.60;;;;;;;23.67;58.04;98614.35;135874;1274;26097;-82
2023/07/22 09:17:37;;;;;;;4.90;3.00;;;;;;;23.27;58.22;98619.05;135750;1275;22542;-81
2023/07/22 09:20:39;;;;;;;2.90;2.40;;;;;;;22.93;57.34;98616.58;135208;1274;22946;-80
2023/07/22 09:23:41;;;;;;;2.50;2.30;;;;;;;23.04;56.50;98616.70;134970;1274;25360;-81
2023/07/22 09:26:44;;;;;;;2.50;2.20;;;;;;;23.24;56.65;98619.20;135128;1274;25367;-82
2023/07/22 09:29:48;;;;;;;4.00;2.10;;;;;;;23.49;54.80;98616.35;136210;1275;22556;-80
2023/07/22 09:32:51;;;;;;;3.30;2.10;;;;;;;23.62;53.50;98615.96;135149;1274;22629;-81
2023/07/22 09:35:53;;;;;;;5.00;2.10;;;;;;;23.26;53.92;98616.27;135026;1274;22551;-84
2023/07/22 09:38:56;;;;;;;7.70;2.40;;;;;;;22.98;55.32;98613.72;136329;1274;22555;-81
2023/07/22 09:42:03;;;;;;;3.80;2.40;;;;;;;23.32;55.06;98616.56;136397;1275;24225;-82
2023/07/22 09:45:06;;;;;;;4.80;2.50;;;;;;;23.70;54.21;98615.25;136346;1269;22584;-81
2023/07/22 09:48:08;;;;;;;4.30;2.40;;;;;;;24.06;53.76;98607.90;136278;1275;22968;-82
2023/07/22 09:51:11;;;;;;;2.70;2.20;;;;;;;24.31;52.48;98611.77;136168;1275;22578;-83
2023/07/22 09:54:13;;;;;;;2.60;2.30;;;;;;;24.69;51.99;98610.99;136072;1271;22542;-83
2023/07/22 09:57:16;;;;;;;6.10;2.30;;;;;;;24.68;51.90;98607.51;135941;1274;22552;-82
2023/07/22 10:00:20;;;;;;;3.70;1.80;;;;;;;24.85;51.90;98609.33;136020;1274;22704;-82
2023/07/22 10:03:23;;;;;;;2.40;2.20;;;;;;;24.94;50.03;98609.80;136038;1253;24344;-83
2023/07/22 10:06:25;;;;;;;6.40;2.30;;;;;;;24.92;49.28;98610.58;136089;1275;22586;-82
2023/07/22 10:09:30;;;;;;;2.00;1.90;;;;;;;25.14;48.07;98606.66;136484;1274;22557;-81
2023/07/22 10:12:32;;;;;;;5.70;2.10;;;;;;;24.93;46.45;98615.39;135166;1274;23428;-81
2023/07/22 10:15:35;;;;;;;3.70;2.00;;;;;;;24.92;47.46;98613.95;136248;1274;22524;-82
2023/07/22 10:18:38;;;;;;;2.10;2.00;;;;;;;24.92;47.76;98616.45;136271;1271;23495;-82
2023/07/22 10:21:40;;;;;;;7.70;1.70;;;;;;;24.88;46.27;98620.05;136094;1275;24914;-82
2023/07/22 10:24:43;;;;;;;2.30;2.10;;;;;;;24.55;47.09;98626.96;136150;1275;23211;-82
2023/07/22 10:27:45;;;;;;;4.10;2.00;;;;;;;24.26;47.25;98628.34;136439;1274;22591;-80
2023/07/22 10:30:48;;;;;;;3.00;2.20;;;;;;;24.13;47.43;98633.39;136419;1274;23063;-83
2023/07/22 10:33:52;;;;;;;3.40;1.70;;;;;;;23.90;46.93;98633.57;136359;1266;25947;-82
2023/07/22 10:36:54;;;;;;;4.10;1.90;;;;;;;23.68;47.51;98632.05;136292;1274;22601;-82
2023/07/22 10:39:57;;;;;;;3.60;1.80;;;;;;;23.55;49.48;98632.61;135890;1275;24180;-83
2023/07/22 10:42:59;;;;;;;2.10;1.90;;;;;;;23.65;49.73;98640.38;135734;1275;22544;-82
2023/07/22 10:46:03;;;;;;;6.80;2.10;;;;;;;23.60;49.67;98639.71;135685;1274;22545;-83
2023/07/22 10:49:05;;;;;;;2.30;2.10;;;;;;;23.34;48.49;98650.73;135746;1274;22553;-84
2023/07/22 10:52:08;;;;;;;2.70;1.90;;;;;;;23.22;47.00;98646.26;135711;1274;23289;-82
2023/07/22 10:55:10;;;;;;;3.90;1.90;;;;;;;23.08;47.99;98646.50;135683;1274;22595;-83
2023/07/22 10:58:15;;;;;;;5.00;2.30;;;;;;;23.16;48.38;98652.55;135710;1275;22538;-83
2023/07/22 11:01:23;;;;;;;5.10;2.00;;;;;;;23.14;48.93;98653.54;135761;1275;22586;-84
2023/07/22 11:04:31;;;;;;;3.90;1.90;;;;;;;23.41;48.87;98647.75;135791;1274;22680;-83
2023/07/22 11:07:34;;;;;;;5.10;2.60;;;;;;;23.58;48.25;98650.45;135702;1275;22553;-86
2023/07/22 11:10:37;;;;;;;2.60;2.30;;;;;;;24.15;47.80;98651.78;135616;1275;22545;-84
2023/07/22 11:13:41;;;;;;;3.30;2.20;;;;;;;24.58;47.32;98650.15;135414;1275;22640;-83
2023/07/22 11:16:45;;;;;;;;;;;;;;;24.64;45.36;98658.59;136016;1275;22518;-83
2023/07/22 11:19:49;;;;;;;3.00;2.20;;;;;;;24.45;45.92;98660.20;135420;1275;22640;-83
2023/07/22 11:22:51;;;;;;;3.80;2.30;;;;;;;24.36;45.67;98665.23;136261;1274;22535;-83
2023/07/22 11:25:54;;;;;;;2.60;2.30;;;;;;;24.23;45.23;98657.80;136530;1274;22548;-82
2023/07/22 11:28:56;;;;;;;2.60;2.40;;;;;;;24.30;46.05;98658.23;136406;1275;22690;-84
2023/07/22 11:31:59;;;;;;;6.30;2.40;;;;;;;24.32;46.82;98657.06;136051;1275;207230;-86
2023/07/22 11:35:02;;;;;;;2.40;2.10;;;;;;;24.35;45.66;98659.42;136158;1275;22537;-87
2023/07/22 11:38:04;;;;;;;2.50;2.10;;;;;;;24.11;45.45;98653.01;136439;1274;22612;-83
2023/07/22 11:41:07;;;;;;;2.60;2.30;;;;;;;24.46;45.79;98647.52;136817;1275;22546;-85
2023/07/22 11:44:14;;;;;;;6.90;2.20;;;;;;;24.96;44.76;98640.83;136497;1275;22537;-85
2023/07/22 11:47:16;;;;;;;2.30;2.10;;;;;;;25.16;43.95;98641.46;136582;1275;24170;-83
2023/07/22 11:50:19;;;;;;;3.20;2.30;;;;;;;25.44;43.48;98641.62;137016;1275;22584;-84
2023/07/22 11:53:21;;;;;;;5.00;2.00;;;;;;;25.39;43.61;98634.41;136205;1275;22490;-82
2023/07/22 11:56:24;;;;;;;3.50;2.20;;;;;;;25.24;43.77;98635.19;135748;1275;22544;-83
2023/07/22 11:59:26;;;;;;;3.50;2.30;;;;;;;24.81;43.96;98642.47;136009;1275;22523;-84
2023/07/22 12:02:31;;;;;;;2.80;2.60;;;;;;;24.56;45.06;98648.81;136092;1275;24169;-84
2023/07/22 12:05:34;;;;;;;3.90;2.90;;;;;;;24.38;44.66;98648.42;136035;1274;22542;-84
2023/07/22 12:08:37;;;;;;;2.30;2.10;;;;;;;24.35;44.93;98649.67;135856;1275;22513;-83
2023/07/22 12:11:39;;;;;;;3.70;2.60;;;;;;;24.51;44.75;98657.04;136066;1275;22466;-79
2023/07/22 12:14:44;;;;;;;2.80;2.60;;;;;;;24.99;43.90;98650.30;136215;1275;22538;-81
2023/07/22 12:17:46;;;;;;;2.50;2.30;;;;;;;25.36;43.82;98658.11;135917;1275;24193;-81
2023/07/22 12:20:49;;;;;;;4.20;2.60;;;;;;;25.71;43.04;98649.16;135814;1275;22556;-83
2023/07/22 12:23:51;;;;;;;3.10;2.70;;;;;;;26.06;42.98;98641.23;136256;1275;22473;-81
2023/07/22 12:26:54;;;;;;;2.40;2.10;;;;;;;26.31;41.92;98637.73;136238;1274;22593;-81
2023/07/22 12:29:56;;;;;;;4.40;2.90;;;;;;;26.12;40.91;98633.24;136003;1274;22649;-83
2023/07/22 12:32:59;;;;;;;3.60;2.30;;;;;;;25.53;40.75;98645.84;135916;1275;24202;-83
2023/07/22 12:36:01;;;;;;;3.20;2.60;;;;;;;25.07;40.83;98643.70;135946;1254;24650;-84
2023/07/22 12:39:04;;;;;;;3.90;2.70;;;;;;;25.16;41.49;98647.69;135610;1274;22554;-84
2023/07/22 12:42:07;;;;;;;5.50;2.30;;;;;;;24.99;41.82;98647.80;135603;1275;22482;-78
2023/07/22 12:45:09;;;;;;;3.60;2.70;;;;;;;25.29;41.99;98637.41;135477;1275;22537;-76
2023/07/22 12:48:12;;;;;;;4.70;2.30;;;;;;;25.70;40.42;98635.66;135514;1274;22572;-76
2023/07/22 12:51:14;;;;;;;3.70;2.30;;;;;;;25.77;40.35;98627.48;135508;1275;22553;-76
2023/07/22 12:54:17;;;;;;;2.60;2.30;;;;;;;25.56;41.23;98632.83;135575;1274;22540;-77
2023/07/22 12:57:22;;;;;;;2.70;2.50;;;;;;;25.36;41.26;98631.70;135541;1251;22525;-77
2023/07/22 13:00:24;;;;;;;2.90;2.30;;;;;;;25.61;41.33;98630.78;135513;1275;22533;-77
2023/07/22 13:03:27;;;;;;;9.30;2.70;;;;;;;25.92;41.10;98631.64;135416;1275;22685;-76
2023/07/22 13:06:29;;;;;;;5.20;2.30;;;;;;;26.24;38.95;98632.23;135326;1275;22548;-76
2023/07/22 13:09:31;;;;;;;2.50;2.00;;;;;;;26.21;38.86;98626.52;135334;1275;24849;-76
2023/07/22 13:12:34;;;;;;;4.10;2.30;;;;;;;26.28;39.48;98624.35;135340;1275;22538;-77
2023/07/22 13:15:36;;;;;;;4.10;2.30;;;;;;;25.88;40.77;98626.54;135411;1274;22553;-78
2023/07/22 13:18:39;;;;;;;2.10;2.00;;;;;;;25.38;42.07;98627.88;135423;1274;22553;-80
2023/07/22 13:21:41;;;;;;;5.30;2.40;;;;;;;25.29;42.73;98629.92;135634;1275;21810;-79
2023/07/22 13:24:44;;;;;;;2.60;2.20;;;;;;;25.58;41.30;98632.01;135536;1275;22587;-79
2023/07/22 13:27:46;;;;;;;5.40;2.20;;;;;;;25.61;40.72;98632.94;135512;1275;22582;-79
2023/07/22 13:30:49;;;;;;;3.30;2.40;;;;;;;25.23;39.79;98625.98;135585;1275;22544;-79
2023/07/22 13:33:54;;;;;;;6.40;2.40;;;;;;;24.97;40.93;98624.02;135385;1275;22533;-79
2023/07/22 13:36:56;;;;;;;8.10;2.40;;;;;;;24.99;41.51;98626.42;135307;1274;22544;-79
2023/07/22 13:39:58;;;;;;;5.30;2.10;;;;;;;25.44;39.83;98627.74;135424;1274;22561;-78
2023/07/22 13:43:01;;;;;;;7.60;2.70;;;;;;;25.75;38.39;98623.84;135439;1274;24187;-82
2023/07/22 13:46:03;;;;;;;4.20;2.10;;;;;;;26.04;37.26;98619.97;135518;1275;22528;-79
2023/07/22 13:49:06;;;;;;;4.90;2.50;;;;;;;26.22;36.54;98618.60;135445;1274;22620;-72
2023/07/22 13:52:08;;;;;;;2.10;2.00;;;;;;;26.15;36.97;98617.25;135397;1274;22545;-82
2023/07/22 13:55:10;;;;;;;4.10;2.20;;;;;;;25.94;37.11;98612.45;135806;1274;22552;-83
2023/07/22 13:58:13;;;;;;;3.70;2.30;;;;;;;25.57;38.65;98620.86;135709;1272;22541;-83
2023/07/22 14:01:18;;;;;;;3.40;2.30;;;;;;;25.18;38.69;98617.48;135654;1275;22539;-87